createdAt,value
2022-11-12T00:00:12.241Z,991.09
2022-11-12T00:05:43.531Z,990.94
2022-11-12T00:11:15.052Z,991.14
2022-11-12T00:16:51.240Z,991.07
2022-11-12T00:22:23.255Z,991.23
2022-11-12T00:27:54.952Z,991.4
2022-11-12T00:33:26.434Z,991.13
2022-11-12T00:38:58.344Z,990.81
2022-11-12T00:44:29.872Z,990.8
2022-11-12T00:50:01.823Z,990.75
2022-11-12T00:55:33.551Z,990.55
2022-11-12T01:01:05.509Z,990.53
2022-11-12T01:06:36.792Z,990.3
2022-11-12T01:12:08.437Z,990.09
2022-11-12T01:17:44.444Z,989.94
2022-11-12T01:23:16.652Z,990.07
2022-11-12T01:28:47.915Z,990.19
2022-11-12T01:34:19.988Z,989.8
2022-11-12T01:39:51.699Z,989.73
2022-11-12T01:45:23.136Z,989.61
2022-11-12T01:50:54.995Z,989.84
2022-11-12T01:56:26.628Z,989.93
2022-11-12T02:01:58.370Z,989.9
2022-11-12T02:07:30.055Z,989.83
2022-11-12T02:13:01.619Z,989.53
2022-11-12T02:18:39.688Z,989.68
2022-11-12T02:24:11.830Z,989.53
2022-11-12T02:29:43.258Z,989.48
2022-11-12T02:35:15.161Z,989.47
2022-11-12T02:40:46.770Z,989.51
2022-11-12T02:46:18.562Z,989.46
2022-11-12T02:51:50.098Z,989.77
2022-11-12T02:57:21.840Z,989.28
2022-11-12T03:02:53.725Z,989.42
2022-11-12T03:08:26.877Z,989.6
2022-11-12T03:13:57.006Z,989.6
2022-11-12T03:19:35.201Z,989.75
2022-11-12T03:25:06.944Z,989.64
2022-11-12T03:30:38.774Z,989.59
2022-11-12T03:36:10.382Z,989.4
2022-11-12T03:41:41.985Z,989.62
2022-11-12T03:47:13.998Z,989.62
2022-11-12T03:52:45.798Z,989.53
2022-11-12T03:58:17.213Z,989.69
2022-11-12T04:03:48.939Z,989.72
2022-11-12T04:09:20.926Z,989.73
2022-11-12T04:14:52.639Z,989.77
2022-11-12T04:20:28.632Z,989.59
2022-11-12T04:26:00.346Z,988.78
2022-11-12T04:31:32.562Z,988.61
2022-11-12T04:37:03.655Z,989.08
2022-11-12T04:42:35.358Z,989.11
2022-11-12T04:48:06.994Z,989.5
2022-11-12T04:53:38.679Z,989.59
2022-11-12T04:59:10.560Z,989.89
2022-11-12T05:04:42.167Z,989.97
2022-11-12T05:10:13.979Z,989.64
2022-11-12T05:15:45.842Z,989.38
2022-11-12T05:21:21.736Z,989.12
2022-11-12T05:26:53.822Z,988.91
2022-11-12T05:32:25.133Z,988.51
2022-11-12T05:37:56.905Z,988.47
2022-11-12T05:43:29.222Z,989.03
2022-11-12T05:49:00.353Z,989.48
2022-11-12T05:54:32.146Z,989.39
2022-11-12T06:00:04.062Z,989.33
2022-11-12T06:05:35.767Z,989.1
2022-11-12T06:11:07.228Z,989.4
2022-11-12T06:16:39.185Z,989.44
2022-11-12T06:22:15.273Z,989.71
2022-11-12T06:27:46.707Z,989.51
2022-11-12T06:33:18.736Z,989.41
2022-11-12T06:38:50.195Z,989.36
2022-11-12T06:44:23.629Z,989.63
2022-11-12T06:49:54.357Z,989.6
2022-11-12T06:55:25.412Z,989.67
2022-11-12T07:00:57.357Z,989.81
2022-11-12T07:06:35.950Z,989.89
2022-11-12T07:12:07.763Z,990.19
2022-11-12T07:17:39.239Z,990.06
2022-11-12T07:23:15.363Z,989.81
2022-11-12T07:28:47.031Z,990.61
2022-11-12T07:34:19.055Z,990.24
2022-11-12T07:39:50.505Z,990.74
2022-11-12T07:45:22.506Z,991.0
2022-11-12T07:50:54.040Z,991.27
2022-11-12T07:56:26.021Z,991.08
2022-11-12T08:01:58.012Z,991.36
2022-11-12T08:07:29.702Z,991.22
2022-11-12T08:13:01.214Z,991.29
2022-11-12T08:18:32.682Z,990.85
2022-11-12T08:24:08.991Z,991.19
2022-11-12T08:29:40.710Z,990.93
2022-11-12T08:35:12.506Z,991.82
2022-11-12T08:40:43.893Z,991.72
2022-11-12T08:46:16.577Z,992.51
2022-11-12T08:51:47.644Z,992.43
2022-11-12T08:57:19.142Z,992.11
2022-11-12T09:02:51.235Z,992.04
2022-11-12T09:08:22.790Z,992.57
2022-11-12T09:13:54.805Z,992.99
2022-11-12T09:19:26.075Z,993.46
2022-11-12T09:25:03.922Z,993.61
2022-11-12T09:30:33.878Z,994.02
2022-11-12T09:36:05.826Z,994.42
2022-11-12T09:41:37.259Z,994.41
2022-11-12T09:47:08.874Z,994.51
2022-11-12T09:52:40.754Z,994.48
2022-11-12T09:58:12.493Z,994.45
2022-11-12T10:03:44.096Z,994.66
2022-11-12T10:09:16.082Z,994.68
2022-11-12T10:14:47.854Z,994.4
2022-11-12T10:20:19.676Z,994.37
2022-11-12T10:25:55.693Z,994.61
2022-11-12T10:31:27.242Z,994.8
2022-11-12T10:36:59.014Z,994.59
2022-11-12T10:42:30.580Z,995.29
2022-11-12T10:48:02.361Z,995.06
2022-11-12T10:53:33.983Z,995.19
2022-11-12T10:59:05.772Z,995.18
2022-11-12T11:04:37.592Z,995.38
2022-11-12T11:10:10.570Z,995.47
2022-11-12T11:15:40.862Z,995.37
2022-11-12T11:21:13.111Z,995.0
2022-11-12T11:26:48.711Z,995.1
2022-11-12T11:32:20.432Z,995.09
2022-11-12T11:37:59.024Z,994.93
2022-11-12T11:43:24.039Z,995.17
2022-11-12T11:48:55.811Z,995.01
2022-11-12T11:54:27.625Z,995.0
2022-11-12T11:59:59.315Z,995.14
2022-11-12T12:05:31.030Z,994.77
2022-11-12T12:11:10.016Z,994.06
2022-11-12T12:16:34.702Z,994.75
2022-11-12T12:22:06.394Z,994.8
2022-11-12T12:27:42.178Z,994.77
2022-11-12T12:33:13.957Z,993.65
2022-11-12T12:38:45.887Z,994.27
2022-11-12T12:44:17.591Z,994.52
2022-11-12T12:49:50.868Z,994.47
2022-11-12T12:55:21.503Z,994.35
2022-11-12T13:00:53.442Z,994.36
2022-11-12T13:06:25.250Z,994.25
2022-11-12T13:12:03.747Z,994.1
2022-11-12T13:17:35.332Z,994.12
2022-11-12T13:23:07.555Z,993.85
2022-11-12T13:28:43.174Z,993.23
2022-11-12T13:34:14.981Z,993.65
2022-11-12T13:39:46.863Z,993.68
2022-11-12T13:45:18.914Z,993.57
2022-11-12T13:50:50.238Z,993.23
2022-11-12T13:56:22.498Z,993.24
2022-11-12T14:01:53.802Z,993.47
2022-11-12T14:07:25.668Z,992.56
2022-11-12T14:12:57.102Z,993.32
2022-11-12T14:18:29.917Z,993.49
2022-11-12T14:24:00.674Z,993.36
2022-11-12T14:29:44.388Z,993.17
2022-11-12T14:35:10.383Z,993.19
2022-11-12T14:40:42.502Z,993.07
2022-11-12T14:46:13.807Z,992.94
2022-11-12T14:51:45.811Z,992.74
2022-11-12T14:57:18.424Z,992.53
2022-11-12T15:03:00.706Z,992.33
2022-11-12T15:08:20.771Z,992.15
2022-11-12T15:13:52.546Z,991.93
2022-11-12T15:19:24.883Z,991.64
2022-11-12T15:24:56.034Z,991.22
2022-11-12T15:30:32.157Z,991.11
2022-11-12T15:36:04.403Z,990.58
2022-11-12T15:41:35.955Z,990.3
2022-11-12T15:47:07.898Z,990.11
2022-11-12T15:52:39.703Z,989.93
2022-11-12T15:58:11.407Z,989.85
2022-11-12T16:03:43.087Z,989.65
2022-11-12T16:09:16.662Z,989.46
2022-11-12T16:14:48.588Z,989.59
2022-11-12T16:20:20.960Z,989.56
2022-11-12T16:25:52.403Z,989.46
2022-11-12T16:31:27.902Z,989.29
2022-11-12T16:36:59.971Z,988.96
2022-11-12T16:42:31.455Z,988.99
2022-11-12T16:48:03.611Z,988.65
2022-11-12T16:53:34.906Z,988.58
2022-11-12T16:59:06.638Z,988.58
2022-11-12T17:04:38.310Z,988.32
2022-11-12T17:10:10.613Z,988.27
2022-11-12T17:15:41.822Z,988.17
2022-11-12T17:21:13.558Z,988.18
2022-11-12T17:26:46.024Z,987.93
2022-11-12T17:32:24.275Z,988.1
2022-11-12T17:37:55.143Z,987.87
2022-11-12T17:43:27.784Z,987.93
2022-11-12T17:48:58.942Z,987.98
2022-11-12T17:54:30.593Z,987.86
2022-11-12T18:00:02.367Z,987.94
2022-11-12T18:05:33.687Z,987.94
2022-11-12T18:11:05.754Z,987.91
2022-11-12T18:16:37.775Z,987.87
2022-11-12T18:22:09.163Z,987.93
2022-11-12T18:27:40.880Z,987.93
2022-11-12T18:33:16.671Z,987.73
2022-11-12T18:38:48.664Z,987.64
2022-11-12T18:44:26.889Z,987.61
2022-11-12T18:49:52.206Z,987.58
2022-11-12T18:55:24.093Z,987.54
2022-11-12T19:00:55.538Z,987.66
2022-11-12T19:06:27.286Z,987.57
2022-11-12T19:11:58.987Z,987.37
2022-11-12T19:17:32.192Z,987.13
2022-11-12T19:23:02.284Z,987.03
2022-11-12T19:28:34.157Z,986.99
2022-11-12T19:34:10.389Z,986.96
2022-11-12T19:39:42.127Z,986.85
2022-11-12T19:45:13.543Z,986.52
2022-11-12T19:50:46.137Z,986.44
2022-11-12T19:56:17.399Z,986.59
2022-11-12T20:01:48.658Z,986.63
2022-11-12T20:07:20.495Z,986.81
2022-11-12T20:12:52.163Z,986.92
2022-11-12T20:18:23.841Z,986.71
2022-11-12T20:23:56.901Z,986.71
2022-11-12T20:29:27.530Z,986.58
2022-11-12T20:35:25.601Z,986.61
2022-11-12T20:40:57.551Z,986.58
2022-11-12T20:46:29.168Z,986.51
2022-11-12T20:52:00.653Z,986.47
2022-11-12T20:57:32.345Z,986.4
2022-11-12T21:03:04.324Z,986.37
2022-11-12T21:08:35.827Z,986.32
2022-11-12T21:14:07.598Z,986.26
2022-11-12T21:19:39.520Z,986.29
2022-11-12T21:25:10.984Z,986.2
2022-11-12T21:30:42.656Z,986.06
2022-11-12T21:36:20.859Z,985.88
2022-11-12T21:41:52.620Z,985.82
2022-11-12T21:47:24.527Z,985.73
2022-11-12T21:52:56.202Z,985.48
2022-11-12T21:58:29.019Z,985.56
2022-11-12T22:03:59.538Z,985.43
2022-11-12T22:09:31.359Z,985.43
2022-11-12T22:15:03.266Z,985.38
2022-11-12T22:20:34.879Z,985.3
2022-11-12T22:26:06.269Z,985.41
2022-11-12T22:31:38.248Z,985.43
2022-11-12T22:37:14.157Z,985.31
2022-11-12T22:42:46.552Z,984.8
2022-11-12T22:48:17.850Z,984.6
2022-11-12T22:53:49.359Z,984.36
2022-11-12T22:59:21.187Z,984.33
2022-11-12T23:04:52.928Z,984.36
2022-11-12T23:10:24.442Z,984.01
2022-11-12T23:15:56.603Z,983.92
2022-11-12T23:21:27.890Z,983.96
2022-11-12T23:26:59.971Z,983.52
2022-11-12T23:32:31.325Z,983.42
2022-11-12T23:38:08.543Z,983.44
2022-11-12T23:43:39.245Z,983.31
2022-11-12T23:49:10.887Z,983.19
2022-11-12T23:54:42.623Z,983.28
